首页
METAR-TAF:

METAR-TAF

机场 :

塞舌尔国际机场

维多利亚, 马埃岛, 塞舌尔

纬度: 04-40S, 经度: 055-31E, 海拔: 3米

当前天气观测

该预报发布于12分钟前的05:00 UTC
风速8节,风向多变
温度 29°C
湿度 74%
气压 1013 hPa
能见度10公里或以上
少量云层高于1800英尺, 塔状积云.
散云层高于2100英尺

METAR: FSIA 280500Z VRB08KT 9999 FEW018TCU SCT021 29/24 Q1013 NOSIG

时间: 09:12 (05:12 UTC)

预报

该预报发布于6小时和12分钟前的23:00 UTC
预报有效从28日的 00点(UTC)到 28日的 24点(UTC)
风速10节,风向
能见度10公里或以上
散云层高于2200英尺
几率 40% :
短暂存在
从 28日的 01点(UTC)到 28日的 06点(UTC)
能見度: 8000
少量云层高于1600英尺, 积雨云.
多云层高于1800英尺
阵雨,

TAF: FSIA 272300Z 2800/2824 17010KT 9999 SCT022 PROB40 TEMPO 2801/2806 8000 SHRA FEW016CB BKN018

超过4000个机场的气象观测和天气预报(METAR&TAF报告)。

可查询的气象台以黄色和红色小点在地图上表示。

将鼠标移到小点上方,可查看气象台名称。

然后点击查看天气观测和预报。

如需切换地图:点击带黑十字的绿色按钮放大地图;点击带横线的绿色按钮缩小地图;或者点击绿色箭头查看邻近地区的地图。


METAR-TAF: